»·PEaware :: N973LW KSMX-KBFL

N973LW :: KSMX-KBFL

FLIGHT INFORMATION

Flight Status: Arrived
Operator: Privately registered:
United States
More flights under this callsign
Pilot: Anonymous 26214 (26214)
Aircraft: CESSNA 172 SKYHAWK
(C172)
More flights by this aircraft type
Origin: KSMX Santa Maria Pub/Capt Hancock
United States
Destination: KBFL Meadows
United States
More flights between these airports :: More routes between these airports
Route: +
File this flight plan on PilotEdge
Remarks: CAT5
Altitude:
(Current/Filed)
0ft
Speed:
(Current/Filed)
0kts
Departed: 21-Oct-19 10:01 AM
Arrived: 21-Oct-19 10:49 AM
Distance/Time
Traveled:
76nm/0:48
Distance/Time
To Go:
Arrived

Flight Plot

Page will automatically refresh every two minutes.


Map Options




Map Legend


Flown Route
Filed Route
Departure Airport
Arrival Airport
Navaid (VOR, NDB)
Fix

Horizontal Profiles

Position Reports

Time Latitude Longitude Heading Altitude Ground
Speed
21-Oct-19 09:55 34.895612 -120.445430 133 265ft 6kts
21-Oct-19 09:56 34.893528 -120.445205 175 265ft 0kts
21-Oct-19 09:57 34.893528 -120.445205 175 265ft 0kts
21-Oct-19 09:58 34.893528 -120.445205 175 265ft 0kts
21-Oct-19 09:59 34.893528 -120.445205 175 265ft 0kts
21-Oct-19 10:00 34.893521 -120.445204 175 265ft 3kts
21-Oct-19 10:01 34.901585 -120.455358 327 652ft 68kts
21-Oct-19 10:02 34.912459 -120.448402 76 1647ft 69kts
21-Oct-19 10:02 34.910672 -120.429848 88 2289ft 80kts
21-Oct-19 10:04 34.910051 -120.396498 67 3201ft 80kts
21-Oct-19 10:05 34.920008 -120.372348 69 3873ft 91kts
21-Oct-19 10:05 34.925994 -120.349507 48 4474ft 84kts
21-Oct-19 10:06 34.939127 -120.324469 48 4596ft 93kts
21-Oct-19 10:08 34.946697 -120.285898 80 4483ft 109kts
21-Oct-19 10:08 34.959712 -120.264491 42 4492ft 96kts
21-Oct-19 10:09 34.975665 -120.236855 52 4498ft 103kts
21-Oct-19 10:10 34.989416 -120.206387 54 4498ft 106kts
21-Oct-19 10:11 35.002106 -120.175469 55 4494ft 98kts
21-Oct-19 10:12 35.014156 -120.145272 55 4493ft 97kts
21-Oct-19 10:13 35.025996 -120.115573 56 4494ft 98kts
21-Oct-19 10:14 35.037684 -120.085678 55 4496ft 97kts
21-Oct-19 10:15 35.049979 -120.054604 61 4499ft 111kts
21-Oct-19 10:16 35.064926 -120.016146 55 4700ft 118kts
21-Oct-19 10:17 35.075281 -119.989453 51 5809ft 63kts
21-Oct-19 10:18 35.082946 -119.971556 50 6353ft 71kts
21-Oct-19 10:19 35.092280 -119.947560 54 6852ft 85kts
21-Oct-19 10:20 35.105583 -119.913522 57 6503ft 131kts
21-Oct-19 10:21 35.120032 -119.875763 57 6510ft 113kts
21-Oct-19 10:22 35.132293 -119.844085 57 6513ft 97kts
21-Oct-19 10:23 35.143851 -119.814645 56 6523ft 95kts
21-Oct-19 10:24 35.155341 -119.785220 56 6516ft 94kts
21-Oct-19 10:25 35.167864 -119.753324 57 6519ft 111kts
21-Oct-19 10:26 35.181297 -119.718620 58 6519ft 114kts
21-Oct-19 10:27 35.195037 -119.683118 58 6513ft 115kts
21-Oct-19 10:28 35.208736 -119.647952 57 6518ft 115kts
21-Oct-19 10:29 35.222287 -119.612847 57 6518ft 113kts
21-Oct-19 10:30 35.235554 -119.577847 58 6517ft 114kts
21-Oct-19 10:31 35.249002 -119.542514 57 6517ft 114kts
21-Oct-19 10:32 35.262521 -119.507298 58 6515ft 114kts
21-Oct-19 10:33 35.276060 -119.472345 58 6516ft 113kts
21-Oct-19 10:34 35.289568 -119.437262 58 6512ft 114kts
21-Oct-19 10:35 35.303421 -119.401215 57 6428ft 115kts
21-Oct-19 10:36 35.317085 -119.365584 58 6425ft 115kts
21-Oct-19 10:37 35.330735 -119.330031 60 6427ft 115kts
21-Oct-19 10:38 35.344335 -119.294474 59 6425ft 114kts
21-Oct-19 10:39 35.357932 -119.258981 59 6425ft 115kts
21-Oct-19 10:40 35.371325 -119.223863 58 6429ft 106kts
21-Oct-19 10:41 35.383561 -119.191841 59 6433ft 102kts
21-Oct-19 10:42 35.395618 -119.160260 58 6447ft 102kts
21-Oct-19 10:43 35.408290 -119.126569 61 4995ft 125kts
21-Oct-19 10:44 35.422765 -119.088844 61 3003ft 123kts
21-Oct-19 10:45 35.413407 -119.055612 152 1333ft 109kts
21-Oct-19 10:46 35.397494 -119.035609 43 876ft 83kts
21-Oct-19 10:47 35.420386 -119.039791 313 689ft 83kts
21-Oct-19 10:48 35.433130 -119.055357 306 487ft 24kts
21-Oct-19 10:49 35.436322 -119.057486 88 493ft 15kts
21-Oct-19 10:50 35.431831 -119.051496 139 494ft 24kts
21-Oct-19 10:51 35.429702 -119.046740 152 495ft 17kts
21-Oct-19 10:52 35.429516 -119.046606 148 494ft 0kts
21-Oct-19 10:53 35.429516 -119.046606 148 494ft 0kts

Navigation Log

Ident Type
Flight plan parsing failed, navigation log unavailable